Time;durP1;ratioP1;P1;durP2;ratioP2;P2;SDS_P1;SDS_P2;PMS_P1;PMS_P2;Temp;Humidity;BMP_temperature;BMP_pressure;BME280_temperature;BME280_humidity;BME280_pressure;Samples;Min_cycle;Max_cycle;Signal;HPM_P1;HPM_P2
2023/06/27 00:00:12;;;;;;;2.78;1.70;;;13.60;99.90;;;-144.05;64.52;56814.84;5021480;28;20117;-83
2023/06/27 00:02:40;;;;;;;5.07;1.73;;;13.60;99.90;;;-144.05;65.02;56819.09;5021165;28;20121;-84
2023/06/27 00:05:07;;;;;;;3.95;1.80;;;13.70;99.90;;;-144.05;65.24;56823.34;5024664;28;20460;-83
2023/06/27 00:07:33;;;;;;;2.97;1.50;;;13.60;99.90;;;-144.05;65.48;56823.34;5043187;28;20455;-84
2023/06/27 00:09:59;;;;;;;4.25;2.80;;;13.60;99.90;;;-144.05;65.14;56821.22;5021981;28;20030;-84
2023/06/27 00:12:25;;;;;;;3.92;1.85;;;13.50;99.90;;;-144.05;65.51;56821.22;5035853;28;20481;-85
2023/06/27 00:14:51;;;;;;;4.13;2.00;;;13.60;99.90;;;-144.05;65.50;56816.97;5018238;28;20030;-84
2023/06/27 00:17:17;;;;;;;2.70;1.90;;;13.60;99.90;;;-144.05;65.43;56836.09;5036554;28;20032;-85
2023/06/27 00:19:46;;;;;;;4.60;2.15;;;13.60;99.90;;;-144.05;65.60;56814.84;5036133;28;20432;-83
2023/06/27 00:22:12;;;;;;;5.05;2.03;;;13.60;99.90;;;-144.05;65.49;56814.84;5036328;28;20515;-83
2023/06/27 00:24:39;;;;;;;5.65;2.05;;;13.60;99.90;;;-144.05;65.43;56819.09;5037456;28;20091;-83
2023/06/27 00:27:06;;;;;;;3.38;2.03;;;13.60;99.90;;;-144.05;65.47;56836.09;5053742;28;20029;-86
2023/06/27 00:29:34;;;;;;;4.45;1.88;;;13.60;99.90;;;-144.05;65.39;56823.34;5064098;28;20037;-86
2023/06/27 00:32:00;;;;;;;3.45;1.85;;;13.60;99.90;;;-144.05;65.51;56823.34;5064380;28;20025;-85
2023/06/27 00:34:26;;;;;;;5.30;2.05;;;13.70;99.90;;;-144.05;65.38;56802.09;5047957;28;20040;-82
2023/06/27 00:36:52;;;;;;;4.13;1.85;;;13.70;99.90;;;-144.05;65.28;56825.47;5049084;28;20021;-83
2023/06/27 00:39:18;;;;;;;2.75;2.05;;;13.60;99.90;;;-144.05;65.50;56825.47;5067264;28;20388;-83
2023/06/27 00:41:44;;;;;;;3.80;1.63;;;13.60;99.90;;;-144.05;65.58;56829.72;5045745;28;20036;-83
2023/06/27 00:44:10;;;;;;;3.80;1.98;;;13.60;99.90;;;-144.05;65.46;56825.47;5064648;28;20028;-85
2023/06/27 00:46:39;;;;;;;11.18;2.45;;;13.70;99.90;;;-144.05;65.68;56825.47;5045676;28;20289;-86
2023/06/27 00:49:10;;;;;;;6.32;2.28;;;13.60;99.90;;;-144.05;66.10;56819.09;5046117;28;20451;-82
2023/06/27 00:51:40;;;;;;;5.60;2.08;;;13.60;99.90;;;-144.05;66.28;56836.09;5047216;28;20028;-86
2023/06/27 00:54:08;;;;;;;3.47;2.00;;;13.60;99.90;;;-144.05;66.12;56825.47;5046925;28;20052;-87
2023/06/27 00:56:36;;;;;;;3.83;1.50;;;13.70;99.90;;;-144.05;66.04;56827.59;5047352;28;20029;-84
2023/06/27 00:59:02;;;;;;;4.35;1.92;;;13.60;99.90;;;-144.05;66.41;56814.84;5053576;28;20017;-83
2023/06/27 01:01:31;;;;;;;2.28;1.77;;;13.60;99.90;;;-144.05;66.56;56821.22;5056831;28;20029;-82
2023/06/27 01:03:58;;;;;;;4.05;1.90;;;13.50;99.90;;;-144.05;66.67;56833.97;5052656;28;20198;-84
2023/06/27 01:07:15;;;;;;;5.30;2.10;;;13.50;99.90;;;-144.05;67.56;56802.09;5048561;28;20110;-85
2023/06/27 01:09:55;;;;;;;8.63;2.10;;;13.50;99.90;;;-144.05;67.54;56823.34;5066879;28;20040;-85
2023/06/27 01:12:46;;;;;;;3.28;1.92;;;13.40;99.90;;;-144.05;68.37;56827.59;5069361;28;20040;-81
2023/06/27 01:15:13;;;;;;;3.58;2.20;;;13.40;99.90;;;-144.05;68.33;56838.22;5056080;28;20029;-81
2023/06/27 01:17:40;;;;;;;5.15;2.22;;;13.40;99.90;;;-144.05;68.60;56806.34;5057423;28;20049;-81
2023/06/27 01:20:09;;;;;;;5.32;2.28;;;13.30;99.90;;;-144.05;68.55;56823.34;5074913;28;20028;-81
2023/06/27 01:22:55;;;;;;;5.28;2.20;;;13.40;99.90;;;-144.05;68.37;56823.34;5056957;28;20040;-81
2023/06/27 01:25:22;;;;;;;5.47;2.13;;;13.50;99.90;;;-144.05;68.64;56825.47;5049539;28;20026;-84
2023/06/27 01:27:48;;;;;;;6.35;2.60;;;13.40;99.90;;;-144.05;68.42;56812.72;5042694;28;20132;-84
2023/06/27 01:30:17;;;;;;;5.57;2.33;;;13.50;99.90;;;-144.05;68.53;56838.22;5024144;28;20033;-84
2023/06/27 01:32:58;;;;;;;5.70;2.42;;;13.50;99.90;;;-144.05;68.30;56819.09;5024607;28;20037;-86
2023/06/27 01:35:40;;;;;;;5.75;2.80;;;13.60;99.90;;;-144.05;68.27;56799.97;5041515;28;20045;-82
2023/06/27 01:38:17;;;;;;;6.38;2.53;;;13.60;99.90;;;-144.05;68.57;56799.97;5020994;28;20111;-85
2023/06/27 01:40:46;;;;;;;4.85;2.05;;;13.60;99.90;;;-144.05;68.27;56848.84;5040067;28;20094;-82
2023/06/27 01:43:15;;;;;;;3.75;1.95;;;13.70;99.90;;;-144.05;68.36;56831.84;5037730;28;20025;-84
2023/06/27 01:45:42;;;;;;;4.80;2.60;;;13.70;99.90;;;-144.05;67.94;56806.34;5021060;28;20025;-83
2023/06/27 01:48:10;;;;;;;4.75;2.20;;;13.70;99.90;;;-144.05;67.88;56810.59;5039251;28;20028;-82
2023/06/27 01:50:36;;;;;;;4.32;2.08;;;13.70;99.90;;;-144.05;67.71;56823.34;5037382;28;20485;-82
2023/06/27 01:53:02;;;;;;;4.25;2.50;;;13.80;99.90;;;-144.05;67.54;56825.47;5017177;28;20129;-82
2023/06/27 01:55:29;;;;;;;3.30;2.15;;;13.80;99.90;;;-144.05;67.18;56819.09;5034865;28;20022;-82
2023/06/27 01:57:57;;;;;;;6.70;2.42;;;13.90;99.90;;;-144.05;67.43;56827.59;5016699;28;20124;-82
2023/06/27 02:00:22;;;;;;;4.45;2.22;;;13.80;99.90;;;-144.05;67.17;56816.97;5033608;28;20033;-82
2023/06/27 02:02:48;;;;;;;7.57;2.38;;;13.80;99.90;;;-144.05;67.27;56827.59;5035488;28;20444;-82
2023/06/27 02:05:14;;;;;;;5.57;2.28;;;13.80;99.90;;;-144.05;67.23;56810.59;5035089;28;20079;-83
2023/06/27 02:07:40;;;;;;;3.88;2.50;;;13.80;99.90;;;-144.05;67.59;56823.34;5016283;28;20036;-86
2023/06/27 02:10:07;;;;;;;4.25;2.30;;;13.80;99.90;;;-144.05;67.36;56819.09;5033799;28;20105;-84
2023/06/27 02:12:33;;;;;;;4.72;2.15;;;13.80;99.90;;;-144.05;67.18;56831.84;5033401;28;20030;-84
2023/06/27 02:14:59;;;;;;;6.68;2.40;;;13.90;99.90;;;-144.05;67.05;56844.59;5034181;28;20112;-83
2023/06/27 02:17:25;;;;;;;3.15;2.25;;;13.90;99.90;;;-144.05;66.89;56825.47;5033076;28;20030;-82
2023/06/27 02:19:51;;;;;;;7.20;2.42;;;13.90;99.90;;;-144.05;67.20;56808.47;5015909;28;20029;-84
2023/06/27 02:22:16;;;;;;;6.30;2.50;;;13.90;99.90;;;-144.05;67.31;56819.09;5023466;28;20058;-87
2023/06/27 02:24:42;;;;;;;4.00;2.33;;;13.90;99.90;;;-144.05;67.03;56823.34;5028618;28;20040;-86
2023/06/27 02:27:08;;;;;;;9.07;3.00;;;13.90;99.90;;;-144.05;66.87;56844.59;5046019;28;20052;-85
2023/06/27 02:29:34;;;;;;;6.85;2.58;;;13.90;99.90;;;-144.05;66.93;56829.72;5045791;28;20469;-85
2023/06/27 02:32:00;;;;;;;7.07;2.10;;;13.90;99.90;;;-144.05;66.93;56814.84;5027753;28;20032;-84
2023/06/27 02:34:25;;;;;;;6.18;2.58;;;13.90;99.90;;;-144.05;67.00;56838.22;5026913;28;20044;-84
2023/06/27 02:36:51;;;;;;;3.70;1.90;;;13.90;99.90;;;-144.05;67.04;56831.84;5041583;28;20017;-84
2023/06/27 02:39:17;;;;;;;4.35;2.53;;;13.90;99.90;;;-144.05;67.13;56823.34;5036777;28;20206;-83
2023/06/27 02:41:43;;;;;;;3.70;2.40;;;13.90;99.90;;;-144.05;67.25;56821.22;5036139;28;20030;-85
2023/06/27 02:44:09;;;;;;;5.10;2.20;;;13.80;99.90;;;-144.05;67.40;56804.22;5037307;28;20061;-82
2023/06/27 02:46:35;;;;;;;4.50;2.20;;;13.90;99.90;;;-144.05;67.47;56814.84;5036953;28;20049;-83
2023/06/27 02:49:01;;;;;;;5.25;2.30;;;13.90;99.90;;;-144.05;67.41;56855.22;5018955;28;20033;-83
2023/06/27 02:51:27;;;;;;;4.35;2.45;;;14.00;99.90;;;-144.05;67.37;56844.59;5019662;28;20033;-84
2023/06/27 02:53:53;;;;;;;5.38;2.47;;;13.90;99.90;;;-144.05;67.38;56821.22;5036426;28;20029;-84
2023/06/27 02:56:19;;;;;;;4.93;2.30;;;14.00;99.90;;;-144.05;66.92;56823.34;5035373;28;20025;-82
2023/06/27 02:58:44;;;;;;;6.03;2.97;;;14.00;99.90;;;-144.05;67.07;56810.59;5036294;28;20030;-82
2023/06/27 03:01:10;;;;;;;7.65;2.50;;;14.00;99.90;;;-144.05;67.12;56810.59;5018352;28;20021;-81
2023/06/27 03:03:36;;;;;;;5.60;2.63;;;14.00;99.90;;;-144.05;66.82;56840.34;5036848;28;20081;-82
2023/06/27 03:06:08;;;;;;;7.18;2.55;;;14.00;99.90;;;-144.05;66.49;56816.97;5035633;28;20120;-84
2023/06/27 03:08:37;;;;;;;6.28;2.67;;;14.10;99.90;;;-144.05;66.60;56819.09;5020017;28;20029;-83
2023/06/27 03:11:04;;;;;;;6.53;2.90;;;14.10;99.90;;;-144.05;66.23;56812.72;5037398;28;20037;-83
2023/06/27 03:13:30;;;;;;;6.13;2.95;;;14.20;99.90;;;-144.05;66.04;56810.59;5019210;28;20464;-85
2023/06/27 03:15:55;;;;;;;6.43;2.65;;;14.20;99.90;;;-144.05;66.00;56829.72;5017491;28;20117;-84
2023/06/27 03:18:21;;;;;;;7.50;2.85;;;14.30;99.90;;;-144.05;65.79;56802.09;5052652;28;20029;-82
2023/06/27 03:20:47;;;;;;;7.07;3.00;;;14.30;99.90;;;-144.05;65.65;56814.84;5045172;28;20034;-84
2023/06/27 03:23:13;;;;;;;8.77;3.00;;;14.40;99.90;;;-144.05;65.28;56842.47;5026167;28;20033;-83
2023/06/27 03:25:39;;;;;;;6.25;2.50;;;14.40;99.90;;;-144.05;65.21;56825.47;5047390;28;20032;-82
2023/06/27 03:28:05;;;;;;;5.57;2.90;;;14.40;99.90;;;-144.05;65.14;56821.22;5042550;28;20033;-85
2023/06/27 03:30:32;;;;;;;4.45;3.13;;;14.50;99.90;;;-144.05;65.23;56816.97;5057024;28;20051;-86
2023/06/27 03:32:58;;;;;;;4.55;2.53;;;14.50;99.90;;;-144.05;64.92;56836.09;5055894;28;20033;-82
2023/06/27 03:35:23;;;;;;;5.60;2.42;;;14.50;99.90;;;-144.05;64.80;56829.72;5052961;28;20392;-79
2023/06/27 03:37:51;;;;;;;7.20;3.40;;;14.60;99.90;;;-144.05;65.01;56831.84;5036695;28;20029;-81
2023/06/27 03:40:18;;;;;;;8.10;3.20;;;14.70;99.90;;;-144.05;64.87;56825.47;5040037;28;20029;-85
2023/06/27 03:42:44;;;;;;;6.13;2.78;;;14.70;99.90;;;-144.05;64.23;56814.84;5058293;28;20530;-85
2023/06/27 03:45:10;;;;;;;6.63;3.15;;;14.80;99.90;;;-144.05;63.65;56823.34;5039680;28;20029;-83
2023/06/27 03:47:38;;;;;;;8.43;3.08;;;14.90;99.90;;;-144.05;63.25;56831.84;5040066;28;20033;-83
2023/06/27 03:50:05;;;;;;;6.63;2.70;;;15.00;99.90;;;-144.05;62.82;56808.47;5056968;28;20158;-82
2023/06/27 03:52:31;;;;;;;7.88;2.75;;;15.10;99.90;;;-144.05;62.84;56808.47;5037309;28;20407;-88
2023/06/27 03:54:56;;;;;;;8.50;2.90;;;15.20;99.90;;;-144.05;62.29;56846.72;5055155;28;20029;-85
2023/06/27 03:57:22;;;;;;;7.07;3.00;;;15.30;99.90;;;-144.05;62.21;56804.22;5037610;28;20036;-84
2023/06/27 03:59:48;;;;;;;10.75;2.90;;;15.30;99.90;;;-144.05;61.67;56829.72;5037482;28;20028;-85
2023/06/27 04:02:14;;;;;;;7.95;2.78;;;15.40;99.90;;;-144.05;61.41;56810.59;5036031;28;20392;-85
2023/06/27 04:04:40;;;;;;;4.03;2.65;;;15.50;99.90;;;-144.05;61.04;56816.97;5036674;28;20028;-85
2023/06/27 04:07:06;;;;;;;7.68;2.97;;;15.50;99.90;;;-144.05;60.52;56808.47;5036636;28;20048;-86
2023/06/27 04:09:32;;;;;;;6.88;2.78;;;15.50;99.90;;;-144.05;60.63;56825.47;5036793;28;20451;-86
2023/06/27 04:12:01;;;;;;;8.10;3.05;;;15.60;99.90;;;-144.05;60.60;56825.47;5054168;28;20039;-84
2023/06/27 04:14:27;;;;;;;9.38;2.83;;;15.60;99.90;;;-144.05;61.08;56806.34;5054804;28;20122;-84
2023/06/27 04:16:53;;;;;;;5.03;2.63;;;15.60;99.90;;;-144.05;60.51;56838.22;5055376;28;20017;-86
2023/06/27 04:19:19;;;;;;;6.93;2.47;;;15.60;99.90;;;-144.05;60.46;56823.34;5053951;28;20021;-86
2023/06/27 04:21:45;;;;;;;4.72;2.25;;;15.70;99.90;;;-144.05;60.57;56816.97;5053351;28;20039;-86
2023/06/27 04:24:11;;;;;;;7.00;3.05;;;15.70;99.90;;;-144.05;60.55;56827.59;5054080;28;20109;-85
2023/06/27 04:26:37;;;;;;;7.13;2.92;;;15.70;99.90;;;-144.05;60.77;56857.34;5040153;28;20485;-83
2023/06/27 04:29:03;;;;;;;4.10;2.00;;;15.80;99.90;;;-144.05;60.54;56829.72;5016300;28;20033;-85
2023/06/27 04:31:29;;;;;;;7.43;2.80;;;15.80;99.90;;;-144.05;61.28;56816.97;5032373;28;20037;-82
2023/06/27 04:33:59;;;;;;;7.50;2.90;;;15.80;99.90;;;-144.05;61.09;56819.09;5016079;28;20033;-82
2023/06/27 04:36:27;;;;;;;7.07;2.65;;;15.90;99.90;;;-144.05;60.92;56831.84;5015642;28;20075;-84
2023/06/27 04:38:53;;;;;;;7.80;2.88;;;15.90;99.90;;;-144.05;60.54;56814.84;5015484;28;20465;-84
2023/06/27 04:41:19;;;;;;;7.30;2.60;;;15.90;99.90;;;-144.05;59.90;56808.47;5034523;28;20052;-84
2023/06/27 04:43:45;;;;;;;7.00;2.90;;;15.90;99.90;;;-144.05;60.24;56836.09;5019179;28;20507;-84
2023/06/27 04:46:11;;;;;;;5.35;2.53;;;16.00;99.90;;;-144.05;59.74;56825.47;5019173;28;20116;-83
2023/06/27 04:48:37;;;;;;;8.70;2.95;;;16.10;99.90;;;-144.05;59.37;56833.97;5019005;28;20102;-85
2023/06/27 04:51:04;;;;;;;8.88;2.97;;;16.20;99.90;;;-144.05;58.99;56838.22;5037369;28;20033;-84
2023/06/27 04:53:32;;;;;;;6.57;2.50;;;16.20;99.90;;;-144.05;58.79;56842.47;5019431;28;20033;-83
2023/06/27 04:55:57;;;;;;;10.13;3.10;;;16.30;99.90;;;-144.05;58.24;56838.22;5037199;28;20022;-84
2023/06/27 04:58:23;;;;;;;8.73;3.30;;;16.40;99.90;;;-144.05;57.99;56823.34;5019398;28;20511;-85
2023/06/27 05:00:51;;;;;;;9.50;2.90;;;16.50;99.90;;;-144.05;57.99;56827.59;5036673;28;20052;-84
2023/06/27 05:03:18;;;;;;;8.55;2.50;;;16.60;99.90;;;-144.05;57.64;56842.47;5035978;28;20033;-84
2023/06/27 05:05:44;;;;;;;9.98;3.00;;;16.80;99.90;;;-144.05;56.76;56814.84;5018869;28;20030;-85
2023/06/27 05:08:11;;;;;;;15.90;3.45;;;16.90;99.90;;;-144.05;56.33;56838.22;5018551;28;20504;-85
2023/06/27 05:10:37;;;;;;;10.88;3.25;;;17.00;99.90;;;-144.05;55.33;56806.34;5036837;28;20036;-84
2023/06/27 05:13:03;;;;;;;10.25;3.20;;;17.20;99.90;;;-144.05;54.87;56840.34;5017887;28;20026;-82
2023/06/27 05:15:28;;;;;;;8.55;2.80;;;17.50;99.90;;;-144.05;54.02;56821.22;5036019;28;20026;-83
2023/06/27 05:18:07;;;;;;;13.10;3.13;;;17.80;99.90;;;-144.05;53.15;56833.97;5037261;28;20025;-84
2023/06/27 05:20:32;;;;;;;9.02;2.92;;;17.90;99.90;;;-144.05;53.14;56846.72;5019446;28;20030;-85
2023/06/27 05:22:58;;;;;;;9.20;2.50;;;18.10;99.90;;;-144.05;52.46;56831.84;5018868;28;20033;-82
2023/06/27 05:25:24;;;;;;;7.22;3.20;;;18.20;99.90;;;-144.05;52.74;56838.22;5040095;28;20021;-81
2023/06/27 05:27:50;;;;;;;8.25;2.78;;;18.20;99.90;;;-144.05;52.51;56840.34;5057257;28;20100;-84
2023/06/27 05:30:16;;;;;;;6.35;2.88;;;18.30;99.90;;;-144.05;52.01;56821.22;5039041;28;20572;-84
2023/06/27 05:32:42;;;;;;;9.48;3.00;;;18.50;99.90;;;-144.05;51.69;56840.34;5038734;28;20029;-84
2023/06/27 05:35:08;;;;;;;8.65;2.95;;;18.60;99.90;;;-144.05;51.68;56865.81;5060102;28;20040;-84
2023/06/27 05:37:34;;;;;;;7.75;3.22;;;18.60;99.90;;;-144.05;51.45;56855.22;5046105;28;20349;-84
2023/06/27 05:40:00;;;;;;;6.90;2.78;;;18.60;99.90;;;-144.05;51.13;56848.84;5055040;28;20025;-83
2023/06/27 05:42:25;;;;;;;10.57;2.60;;;18.80;99.90;;;-144.05;50.99;56846.72;5037846;28;20500;-83
2023/06/27 05:44:51;;;;;;;11.57;3.05;;;19.10;99.90;;;-144.05;49.89;56831.84;5055079;28;20033;-83
2023/06/27 05:47:17;;;;;;;10.40;2.70;;;19.30;99.90;;;-144.05;49.38;56853.09;5055385;28;20114;-81
2023/06/27 05:49:43;;;;;;;6.55;2.83;;;19.40;99.90;;;-144.05;50.50;56861.56;5055442;28;20408;-82
2023/06/27 05:52:09;;;;;;;9.77;3.10;;;19.20;99.90;;;-144.05;50.39;56865.81;5037152;28;20033;-84
2023/06/27 05:54:35;;;;;;;6.75;2.53;;;19.10;99.90;;;-144.05;50.65;56848.84;5054987;28;20029;-82
2023/06/27 05:57:00;;;;;;;10.52;3.35;;;19.20;99.90;;;-144.05;49.40;56848.84;5054661;28;20421;-82
2023/06/27 05:59:26;;;;;;;12.82;3.85;;;19.40;99.90;;;-144.05;50.16;56863.69;5053542;28;20378;-84
2023/06/27 06:01:52;;;;;;;9.32;3.75;;;19.40;99.90;;;-144.05;49.78;56848.84;5053305;28;20384;-83
2023/06/27 06:04:18;;;;;;;7.93;3.20;;;19.40;99.90;;;-144.05;49.23;56857.34;5053198;28;20171;-81
2023/06/27 06:06:46;;;;;;;11.30;3.30;;;19.40;99.90;;;-144.05;49.42;56829.72;5035257;28;20155;-82
2023/06/27 06:09:12;;;;;;;10.32;3.60;;;19.30;99.90;;;-144.05;50.60;56842.47;5055500;28;20029;-81
2023/06/27 06:11:38;;;;;;;11.65;3.78;;;19.20;99.90;;;-144.05;51.90;56846.72;5058215;28;20044;-82
2023/06/27 06:14:04;;;;;;;11.98;4.05;;;18.90;99.90;;;-144.05;50.84;56848.84;5057801;28;20083;-84
2023/06/27 06:16:34;;;;;;;10.50;3.53;;;18.90;99.90;;;-144.05;51.12;56853.09;5057293;28;20540;-82
2023/06/27 06:19:01;;;;;;;14.07;3.88;;;19.00;99.90;;;-144.05;51.13;56844.59;5056736;28;20075;-83
2023/06/27 06:21:27;;;;;;;11.10;3.15;;;18.90;99.90;;;-144.05;51.22;56859.47;5038982;28;20025;-84
2023/06/27 06:23:53;;;;;;;15.68;4.65;;;18.80;99.90;;;-144.05;52.00;56853.09;5057523;28;20047;-84
2023/06/27 06:26:20;;;;;;;7.80;3.50;;;18.60;99.90;;;-144.05;53.39;56840.34;5045953;28;20033;-82
2023/06/27 06:28:46;;;;;;;14.57;4.40;;;18.40;99.90;;;-144.05;53.78;56850.97;5019155;28;20092;-83
2023/06/27 06:31:20;;;;;;;11.40;4.13;;;18.30;99.90;;;-144.05;53.96;56850.97;5036965;28;20025;-81
2023/06/27 06:33:48;;;;;;;11.48;4.50;;;18.20;99.90;;;-144.05;54.14;56844.59;5019126;28;20029;-82
2023/06/27 06:36:14;;;;;;;12.20;3.78;;;18.10;99.90;;;-144.05;54.99;56823.34;5035376;28;20067;-85
2023/06/27 06:38:41;;;;;;;11.88;4.00;;;18.00;99.90;;;-144.05;54.95;56836.09;5018884;28;20029;-82
2023/06/27 06:41:07;;;;;;;8.23;3.55;;;17.90;99.90;;;-144.05;55.46;56855.22;5019075;28;20025;-82
2023/06/27 06:43:33;;;;;;;13.80;4.00;;;17.70;99.90;;;-144.05;56.22;56865.81;5036388;28;20061;-85
2023/06/27 06:45:59;;;;;;;10.73;3.70;;;17.60;99.90;;;-144.05;56.76;56836.09;5035504;28;20096;-81
2023/06/27 06:48:25;;;;;;;19.90;4.63;;;17.50;99.90;;;-144.05;57.00;56825.47;5035492;28;20056;-85
2023/06/27 06:50:53;;;;;;;13.07;3.92;;;17.50;99.90;;;-144.05;56.81;56836.09;5036316;28;20029;-84
2023/06/27 06:53:20;;;;;;;9.45;3.58;;;17.60;99.90;;;-144.05;56.06;56850.97;5018419;28;20029;-84
2023/06/27 06:55:46;;;;;;;11.70;3.30;;;17.90;99.90;;;-144.05;55.70;56850.97;5019304;28;20029;-84
2023/06/27 06:58:12;;;;;;;13.57;4.35;;;18.10;99.90;;;-144.05;55.04;56842.47;5036601;28;20091;-82
2023/06/27 07:00:38;;;;;;;13.10;3.63;;;18.10;99.90;;;-144.05;54.73;56836.09;5037002;28;20033;-84
2023/06/27 07:03:08;;;;;;;14.18;3.92;;;18.20;99.90;;;-144.05;53.98;56831.84;5035890;28;20021;-84
2023/06/27 07:05:38;;;;;;;12.48;3.60;;;18.50;99.90;;;-144.05;52.74;56855.22;5036389;28;20496;-84
2023/06/27 07:08:06;;;;;;;11.57;3.80;;;18.90;99.90;;;-144.05;52.71;56865.81;5036591;28;20094;-85
2023/06/27 07:10:33;;;;;;;15.10;4.28;;;18.90;99.90;;;-144.05;51.69;56882.81;5018214;28;20021;-83
2023/06/27 07:13:02;;;;;;;13.90;4.30;;;19.30;99.90;;;-144.05;51.78;56846.72;5037497;28;20040;-83
2023/06/27 07:15:29;;;;;;;11.40;3.83;;;19.20;99.90;;;-144.05;50.87;56853.09;5035531;28;20022;-85
2023/06/27 07:17:55;;;;;;;12.55;4.60;;;19.60;99.90;;;-144.05;50.69;56861.56;5037161;28;20025;-84
2023/06/27 07:20:22;;;;;;;13.02;4.30;;;19.80;99.90;;;-144.05;49.90;56872.19;5036522;28;20021;-82
2023/06/27 07:22:49;;;;;;;8.85;3.88;;;19.90;99.90;;;-144.05;50.64;56861.56;5019037;28;20029;-83
2023/06/27 07:25:15;;;;;;;11.45;4.15;;;20.00;99.90;;;-144.05;48.37;56863.69;5021302;28;20029;-85
2023/06/27 07:27:44;;;;;;;15.15;4.43;;;20.40;99.90;;;-144.05;48.22;56874.31;5039204;28;20033;-83
2023/06/27 07:30:11;;;;;;;18.08;4.88;;;20.80;99.90;;;-144.05;47.05;56895.56;5038996;28;20374;-83
2023/06/27 07:32:38;;;;;;;10.88;3.97;;;20.80;99.90;;;-144.05;46.46;56897.69;5057328;28;20203;-84
2023/06/27 07:35:04;;;;;;;12.18;4.22;;;21.20;99.90;;;-144.05;46.50;56899.81;5058477;28;20393;-83
2023/06/27 07:37:31;;;;;;;9.73;3.55;;;21.20;99.90;;;-144.05;47.04;56887.06;5041308;28;20025;-79
2023/06/27 07:39:57;;;;;;;14.20;3.90;;;21.30;99.90;;;-144.05;46.17;56904.06;5040518;28;20110;-84
2023/06/27 07:42:27;;;;;;;9.88;3.55;;;21.40;99.90;;;-144.05;46.03;56901.94;5040989;28;20048;-84
2023/06/27 07:44:53;;;;;;;15.50;4.50;;;21.60;99.90;;;-144.05;44.84;56880.69;5041572;28;20472;-83
2023/06/27 07:47:19;;;;;;;12.50;4.10;;;22.10;99.90;;;-144.05;42.91;56893.44;5040143;28;20029;-83
2023/06/27 07:49:45;;;;;;;8.80;3.60;;;22.30;99.90;;;-144.05;43.42;56906.19;5040826;28;20047;-84
2023/06/27 07:52:11;;;;;;;9.30;3.92;;;22.40;99.90;;;-144.05;41.93;56938.03;5056547;28;20037;-84
2023/06/27 07:54:38;;;;;;;11.05;3.45;;;22.50;99.90;;;-144.05;42.69;56923.19;5068812;28;20024;-84
2023/06/27 07:57:05;;;;;;;10.70;4.07;;;22.50;99.90;;;-144.05;43.13;56901.94;5045924;28;20025;-84
2023/06/27 07:59:31;;;;;;;13.15;3.80;;;22.30;99.90;;;-144.05;43.38;56910.44;5058013;28;20056;-83
2023/06/27 08:01:57;;;;;;;13.68;3.88;;;22.10;99.90;;;-144.05;44.14;56895.56;5039754;28;20025;-84
2023/06/27 08:04:23;;;;;;;14.38;4.18;;;22.20;99.90;;;-144.05;43.33;56929.53;5058345;28;20118;-83
2023/06/27 08:06:49;;;;;;;14.00;4.43;;;22.50;99.90;;;-144.05;42.86;56901.94;5039164;28;20488;-85
2023/06/27 08:09:15;;;;;;;13.32;3.90;;;22.30;99.90;;;-144.05;43.67;56921.06;5058308;28;20052;-83
2023/06/27 08:11:41;;;;;;;13.70;4.07;;;22.20;99.90;;;-144.05;42.82;56935.91;5039221;28;20060;-84
2023/06/27 08:14:07;;;;;;;15.80;4.00;;;22.70;99.90;;;-144.05;41.81;56942.28;5057429;28;20033;-84
2023/06/27 08:16:33;;;;;;;14.82;3.90;;;22.80;99.90;;;-144.05;41.19;56940.16;5059547;28;20029;-84
2023/06/27 08:19:00;;;;;;;15.93;4.28;;;23.10;99.90;;;-144.05;42.72;56859.47;5059597;28;20374;-85
2023/06/27 08:21:26;;;;;;;15.55;4.13;;;22.60;99.90;;;-144.05;42.18;56933.78;5043582;28;20037;-83
2023/06/27 08:23:51;;;;;;;10.80;3.92;;;23.10;99.90;;;-144.05;41.08;56931.66;5044029;28;20144;-83
2023/06/27 08:26:18;;;;;;;11.05;3.25;;;23.10;99.90;;;-144.05;42.01;56938.03;5051656;28;20037;-83
2023/06/27 08:28:45;;;;;;;12.85;3.78;;;23.10;99.90;;;-144.05;40.98;56910.44;5024180;28;20488;-84
2023/06/27 08:31:13;;;;;;;9.98;3.72;;;23.30;99.90;;;-144.05;39.89;56929.53;5024347;28;20469;-83
2023/06/27 08:33:39;;;;;;;12.25;3.60;;;23.40;99.90;;;-144.05;40.24;56925.28;5042163;28;20025;-82
2023/06/27 08:36:07;;;;;;;5.57;2.60;;;23.50;99.90;;;-144.05;40.53;56944.41;5024808;28;20057;-86
2023/06/27 08:38:32;;;;;;;8.27;2.92;;;23.60;99.90;;;-144.05;38.13;56972.03;5042201;28;20081;-85
2023/06/27 08:41:01;;;;;;;16.73;3.35;;;24.00;99.90;;;-144.05;37.30;56965.66;5042637;28;20056;-84
2023/06/27 08:43:27;;;;;;;10.20;3.90;;;24.30;99.90;;;-144.05;38.03;56931.66;5024024;28;20157;-83
2023/06/27 08:45:55;;;;;;;10.20;3.13;;;24.20;99.90;;;-144.05;37.55;56965.66;5023643;28;20029;-86
2023/06/27 08:48:22;;;;;;;8.57;2.88;;;24.30;99.90;;;-144.05;36.94;56980.53;5042134;28;20057;-85
2023/06/27 08:50:54;;;;;;;8.55;3.05;;;24.40;99.90;;;-144.05;36.23;56963.53;5041747;28;20061;-83
2023/06/27 08:53:22;;;;;;;7.88;2.45;;;24.30;99.90;;;-144.05;35.62;57008.13;5043232;28;20440;-86
2023/06/27 08:56:07;;;;;;;9.48;2.78;;;24.70;99.90;;;-144.05;36.22;56978.41;5025300;28;20060;-86
2023/06/27 08:58:55;;;;;;;12.10;2.80;;;24.80;99.90;;;-144.05;36.36;57001.75;5024799;28;20158;-82
2023/06/27 09:01:29;;;;;;;9.68;2.67;;;25.00;99.90;;;-144.05;34.78;57001.75;5024895;28;20034;-84
2023/06/27 09:03:55;;;;;;;11.02;3.17;;;25.00;99.90;;;-144.05;34.75;56997.50;5042392;28;20066;-83
2023/06/27 09:06:21;;;;;;;6.65;2.70;;;25.10;99.90;;;-144.05;34.57;56974.16;5024881;28;20030;-83
2023/06/27 09:08:49;;;;;;;9.60;3.30;;;25.20;98.80;;;-144.05;36.31;56980.53;5024510;28;20041;-83
2023/06/27 09:11:16;;;;;;;10.85;2.55;;;24.80;99.90;;;-144.05;34.97;56965.66;5041922;28;20122;-83
2023/06/27 09:13:42;;;;;;;9.65;2.78;;;24.80;98.70;;;-144.05;35.40;56959.28;5040034;28;20408;-86
2023/06/27 09:16:09;;;;;;;9.55;2.70;;;24.30;99.20;;;-144.05;35.57;56946.53;5023819;28;20032;-84
2023/06/27 09:18:37;;;;;;;6.95;2.75;;;23.70;98.10;;;-144.05;36.36;56921.06;5043027;28;20518;-89
2023/06/27 09:21:03;;;;;;;8.57;2.58;;;23.80;99.90;;;-144.05;36.52;56969.91;5026495;28;20033;-84
2023/06/27 09:23:31;;;;;;;12.20;2.72;;;24.20;99.90;;;-144.05;35.79;56995.38;5027311;28;20037;-84
2023/06/27 09:26:12;;;;;;;7.43;2.33;;;24.60;99.90;;;-144.05;35.55;56969.91;5033950;28;20029;-84
2023/06/27 09:28:52;;;;;;;7.35;2.60;;;24.60;99.90;;;-144.05;34.55;56995.38;5044756;28;20485;-85
2023/06/27 09:31:22;;;;;;;8.45;2.30;;;24.40;98.70;;;-144.05;34.27;56984.78;5045187;28;20057;-83
2023/06/27 09:33:49;;;;;;;4.65;2.10;;;24.60;97.80;;;-144.05;34.73;56965.66;5044001;28;20072;-84
2023/06/27 09:36:34;;;;;;;9.07;2.97;;;24.80;98.00;;;-144.05;34.20;56984.78;5061275;28;20036;-83
2023/06/27 09:39:08;;;;;;;9.43;2.93;;;24.50;96.60;;;-144.05;34.86;56963.53;5061855;28;20025;-84
2023/06/27 09:41:49;;;;;;;14.00;2.80;;;24.20;97.40;;;-144.05;35.64;56948.66;5044250;28;20029;-82
2023/06/27 09:44:25;;;;;;;7.47;3.15;;;23.80;98.00;;;-144.05;36.48;56946.53;5062822;28;20597;-83
2023/06/27 09:46:52;;;;;;;6.72;2.88;;;23.60;99.40;;;-144.05;36.40;56938.03;5044557;28;20489;-85
2023/06/27 09:49:22;;;;;;;10.75;2.92;;;23.20;99.50;;;-144.05;37.28;56950.78;5043714;28;20519;-85
2023/06/27 09:51:50;;;;;;;9.57;3.08;;;23.80;99.90;;;-144.05;34.71;56965.66;5045374;28;20309;-84
2023/06/27 09:54:23;;;;;;;9.05;3.35;;;24.40;97.90;;;-144.05;34.81;56965.66;5044757;28;20036;-83
2023/06/27 09:56:51;;;;;;;8.73;2.58;;;24.80;98.00;;;-144.05;33.90;56995.38;5063001;28;20079;-85
2023/06/27 09:59:26;;;;;;;8.35;3.05;;;25.10;96.20;;;-144.05;33.29;57008.13;5060136;28;20033;-84
2023/06/27 10:01:53;;;;;;;8.38;3.15;;;25.30;95.10;;;-144.05;32.83;56984.78;5043876;28;20032;-87
2023/06/27 10:04:20;;;;;;;6.82;2.90;;;25.20;92.90;;;-144.05;33.51;56993.25;5044155;28;20506;-87
2023/06/27 10:06:46;;;;;;;9.82;3.20;;;24.80;94.10;;;-144.05;33.93;56969.91;5043011;28;20037;-84